createdAt,value
2018-09-22T00:01:57.568Z,11.08
2018-09-22T00:04:26.368Z,11.09
2018-09-22T00:06:55.134Z,11.02
2018-09-22T00:09:24.061Z,10.96
2018-09-22T00:11:52.853Z,11.05
2018-09-22T00:14:21.684Z,10.95
2018-09-22T00:16:50.851Z,11.01
2018-09-22T00:19:20.137Z,10.80
2018-09-22T00:21:49.396Z,10.98
2018-09-22T00:24:18.176Z,11.03
2018-09-22T00:26:47.023Z,11.03
2018-09-22T00:29:20.609Z,11.03
2018-09-22T00:31:49.472Z,11.03
2018-09-22T00:34:18.727Z,10.99
2018-09-22T00:36:47.543Z,10.99
2018-09-22T00:39:16.346Z,10.95
2018-09-22T00:41:45.187Z,10.89
2018-09-22T00:44:13.972Z,10.97
2018-09-22T00:46:42.853Z,10.96
2018-09-22T00:49:11.649Z,10.86
2018-09-22T00:51:40.948Z,10.93
2018-09-22T00:54:09.750Z,10.97
2018-09-22T00:56:38.579Z,10.82
2018-09-22T00:59:07.396Z,10.92
2018-09-22T01:01:36.220Z,11.04
2018-09-22T01:04:05.011Z,11.15
2018-09-22T01:06:33.823Z,11.15
2018-09-22T01:09:02.838Z,11.14
2018-09-22T01:11:31.778Z,11.12
2018-09-22T01:14:00.616Z,11.14
2018-09-22T01:16:29.476Z,11.05
2018-09-22T01:18:58.289Z,11.01
2018-09-22T01:21:27.140Z,11.00
2018-09-22T01:23:56.260Z,11.04
2018-09-22T01:26:25.110Z,11.01
2018-09-22T01:28:53.899Z,11.04
2018-09-22T01:31:22.706Z,11.10
2018-09-22T01:33:51.554Z,10.77
2018-09-22T01:36:20.697Z,10.95
2018-09-22T01:38:49.793Z,10.91
2018-09-22T01:41:18.591Z,10.91
2018-09-22T01:43:47.434Z,10.94
2018-09-22T01:46:16.238Z,10.85
2018-09-22T01:48:45.112Z,10.84
2018-09-22T01:51:13.951Z,10.78
2018-09-22T01:53:42.788Z,10.76
2018-09-22T01:56:11.575Z,10.72
2018-09-22T01:58:40.445Z,10.69
2018-09-22T02:01:09.702Z,10.63
2018-09-22T02:03:38.531Z,10.65
2018-09-22T02:06:07.526Z,10.66
2018-09-22T02:08:36.399Z,10.59
2018-09-22T02:11:05.903Z,10.63
2018-09-22T02:13:34.792Z,10.60
2018-09-22T02:16:03.604Z,10.54
2018-09-22T02:18:32.420Z,10.53
2018-09-22T02:21:01.188Z,10.56
2018-09-22T02:23:30.011Z,10.69
2018-09-22T02:25:58.832Z,10.59
2018-09-22T02:28:27.675Z,10.66
2018-09-22T02:30:56.432Z,10.54
2018-09-22T02:33:25.264Z,10.48
2018-09-22T02:35:54.029Z,10.56
2018-09-22T02:38:22.904Z,10.62
2018-09-22T02:40:51.758Z,10.54
2018-09-22T02:43:20.588Z,10.57
2018-09-22T02:45:49.388Z,10.54
2018-09-22T02:48:18.163Z,10.62
2018-09-22T02:50:47.043Z,10.50
2018-09-22T02:53:16.079Z,10.56
2018-09-22T02:55:44.875Z,10.51
2018-09-22T02:58:13.644Z,10.58
2018-09-22T03:00:42.491Z,10.64
2018-09-22T03:03:11.330Z,10.62
2018-09-22T03:05:40.116Z,10.70
2018-09-22T03:08:08.963Z,10.73
2018-09-22T03:10:37.785Z,10.70
2018-09-22T03:13:06.592Z,10.81
2018-09-22T03:15:35.875Z,10.82
2018-09-22T03:18:04.655Z,10.66
2018-09-22T03:20:33.467Z,10.76
2018-09-22T03:23:02.244Z,10.79
2018-09-22T03:25:31.083Z,10.85
2018-09-22T03:28:00.021Z,10.73
2018-09-22T03:30:28.812Z,10.74
2018-09-22T03:32:57.635Z,10.73
2018-09-22T03:35:26.459Z,10.82
2018-09-22T03:37:55.246Z,10.78
2018-09-22T03:40:24.356Z,10.70
2018-09-22T03:42:53.186Z,10.73
2018-09-22T03:45:21.958Z,10.71
2018-09-22T03:47:50.875Z,10.76
2018-09-22T03:50:19.649Z,10.83
2018-09-22T03:52:48.541Z,10.83
2018-09-22T03:55:17.300Z,10.83
2018-09-22T03:57:46.092Z,10.89
2018-09-22T04:00:14.840Z,10.89
2018-09-22T04:02:43.658Z,10.92
2018-09-22T04:05:12.596Z,10.89
2018-09-22T04:07:41.427Z,11.03
2018-09-22T04:10:10.257Z,11.01
2018-09-22T04:12:39.420Z,11.02
2018-09-22T04:15:08.288Z,10.92
2018-09-22T04:17:37.192Z,10.96
2018-09-22T04:20:06.132Z,10.94
2018-09-22T04:22:34.985Z,10.87
2018-09-22T04:25:03.835Z,10.93
2018-09-22T04:27:32.654Z,10.86
2018-09-22T04:30:01.522Z,10.95
2018-09-22T04:32:30.333Z,10.90
2018-09-22T04:34:59.143Z,10.84
2018-09-22T04:37:27.909Z,10.82
2018-09-22T04:39:56.748Z,10.77
2018-09-22T04:42:25.636Z,10.79
2018-09-22T04:44:54.705Z,10.80
2018-09-22T04:47:23.487Z,10.86
2018-09-22T04:49:52.717Z,10.87
2018-09-22T04:52:21.941Z,10.96
2018-09-22T04:54:50.792Z,10.87
2018-09-22T04:57:19.563Z,10.87
2018-09-22T04:59:48.400Z,10.93
2018-09-22T05:02:17.207Z,10.96
2018-09-22T05:04:45.983Z,10.89
2018-09-22T05:07:14.794Z,10.91
2018-09-22T05:09:43.578Z,10.90
2018-09-22T05:12:12.335Z,10.90
2018-09-22T05:14:41.191Z,10.94
2018-09-22T05:17:10.097Z,10.89
2018-09-22T05:19:38.973Z,10.84
2018-09-22T05:22:07.783Z,10.88
2018-09-22T05:24:36.651Z,10.83
2018-09-22T05:27:05.839Z,10.87
2018-09-22T05:29:34.663Z,10.91
2018-09-22T05:32:03.527Z,11.02
2018-09-22T05:34:32.310Z,11.10
2018-09-22T05:37:01.547Z,10.98
2018-09-22T05:39:30.439Z,11.07
2018-09-22T05:41:59.252Z,11.09
2018-09-22T05:44:28.210Z,11.06
2018-09-22T05:46:57.064Z,11.10
2018-09-22T05:49:25.872Z,11.13
2018-09-22T05:51:54.699Z,11.08
2018-09-22T05:54:23.465Z,11.15
2018-09-22T05:56:52.374Z,11.20
2018-09-22T05:59:21.144Z,11.18
2018-09-22T06:01:50.014Z,11.15
2018-09-22T06:04:18.767Z,11.05
2018-09-22T06:06:47.576Z,11.14
2018-09-22T06:09:16.417Z,11.17
2018-09-22T06:11:45.231Z,11.18
2018-09-22T06:14:14.061Z,11.25
2018-09-22T06:16:42.876Z,11.33
2018-09-22T06:19:11.702Z,11.39
2018-09-22T06:21:40.608Z,11.36
2018-09-22T06:24:09.363Z,11.40
2018-09-22T06:26:38.195Z,11.51
2018-09-22T06:29:06.983Z,11.51
2018-09-22T06:31:35.825Z,11.56
2018-09-22T06:34:04.683Z,11.65
2018-09-22T06:36:33.534Z,11.62
2018-09-22T06:39:02.467Z,11.62
2018-09-22T06:41:31.235Z,11.72
2018-09-22T06:44:00.057Z,11.90
2018-09-22T06:46:28.884Z,11.87
2018-09-22T06:48:57.708Z,11.86
2018-09-22T06:51:26.506Z,12.07
2018-09-22T06:53:55.331Z,12.10
2018-09-22T06:56:24.092Z,12.11
2018-09-22T06:58:53.016Z,12.31
2018-09-22T07:01:21.948Z,12.41
2018-09-22T07:03:50.814Z,12.55
2018-09-22T07:06:19.671Z,12.53
2018-09-22T07:08:48.475Z,12.63
2018-09-22T07:11:17.299Z,12.71
2018-09-22T07:13:46.163Z,12.63
2018-09-22T07:16:14.921Z,12.86
2018-09-22T07:18:43.747Z,12.96
2018-09-22T07:21:12.503Z,12.91
2018-09-22T07:23:41.364Z,13.13
2018-09-22T07:26:10.137Z,13.21
2018-09-22T07:28:38.944Z,13.23
2018-09-22T07:31:07.737Z,13.39
2018-09-22T07:33:36.580Z,13.61
2018-09-22T07:36:05.720Z,13.65
2018-09-22T07:38:34.538Z,13.67
2018-09-22T07:41:03.406Z,13.78
2018-09-22T07:43:32.180Z,13.68
2018-09-22T07:46:00.996Z,13.67
2018-09-22T07:48:29.816Z,13.94
2018-09-22T07:50:58.693Z,13.84
2018-09-22T07:53:27.452Z,13.97
2018-09-22T07:55:56.243Z,14.07
2018-09-22T07:58:24.996Z,14.16
2018-09-22T08:00:53.856Z,14.19
2018-09-22T08:03:22.652Z,14.48
2018-09-22T08:05:51.467Z,14.21
2018-09-22T08:08:20.240Z,14.37
2018-09-22T08:10:49.069Z,14.46
2018-09-22T08:13:17.940Z,14.46
2018-09-22T08:15:46.772Z,14.60
2018-09-22T08:18:15.580Z,14.85
2018-09-22T08:20:44.402Z,14.66
2018-09-22T08:23:13.219Z,14.87
2018-09-22T08:25:42.091Z,14.77
2018-09-22T08:28:10.824Z,14.88
2018-09-22T08:30:39.659Z,14.88
2018-09-22T08:33:08.418Z,14.88
2018-09-22T08:35:37.283Z,15.03
2018-09-22T08:38:06.188Z,15.13
2018-09-22T08:40:35.016Z,14.97
2018-09-22T08:43:03.895Z,14.93
2018-09-22T08:45:32.698Z,14.93
2018-09-22T08:48:01.504Z,14.98
2018-09-22T08:50:30.503Z,15.06
2018-09-22T08:52:59.310Z,15.18
2018-09-22T08:55:28.089Z,15.19
2018-09-22T08:57:56.955Z,15.47
2018-09-22T09:00:25.692Z,15.45
2018-09-22T09:02:54.579Z,15.52
2018-09-22T09:05:23.389Z,15.49
2018-09-22T09:07:52.292Z,15.65
2018-09-22T09:10:21.160Z,15.60
2018-09-22T09:12:49.963Z,15.65
2018-09-22T09:15:18.816Z,15.72
2018-09-22T09:17:47.623Z,16.05
2018-09-22T09:20:16.362Z,16.03
2018-09-22T09:22:45.188Z,15.76
2018-09-22T09:25:13.971Z,15.41
2018-09-22T09:27:42.872Z,15.67
2018-09-22T09:30:11.632Z,15.76
2018-09-22T09:32:40.453Z,15.68
2018-09-22T09:35:09.212Z,15.42
2018-09-22T09:37:38.082Z,15.85
2018-09-22T09:40:07.131Z,15.91
2018-09-22T09:42:36.181Z,15.85
2018-09-22T09:45:11.143Z,15.79
2018-09-22T09:47:40.002Z,15.90
2018-09-22T09:50:08.828Z,15.62
2018-09-22T09:52:37.596Z,15.47
2018-09-22T09:55:06.640Z,15.60
2018-09-22T09:57:35.412Z,15.59
2018-09-22T10:00:04.451Z,15.60
2018-09-22T10:02:33.335Z,15.57
2018-09-22T10:05:02.424Z,15.83
2018-09-22T10:07:31.259Z,15.92
2018-09-22T10:10:00.142Z,16.00
2018-09-22T10:12:28.925Z,16.21
2018-09-22T10:14:57.781Z,16.17
2018-09-22T10:17:26.610Z,16.17
2018-09-22T10:19:55.526Z,16.27
2018-09-22T10:22:24.392Z,16.34
2018-09-22T10:24:53.224Z,16.69
2018-09-22T10:27:22.046Z,16.49
2018-09-22T10:29:50.840Z,16.24
2018-09-22T10:32:19.586Z,16.27
2018-09-22T10:34:48.417Z,16.30
2018-09-22T10:37:17.210Z,16.14
2018-09-22T10:39:46.315Z,16.14
2018-09-22T10:42:15.098Z,16.24
2018-09-22T10:44:43.966Z,16.61
2018-09-22T10:47:12.819Z,16.74
2018-09-22T10:49:41.630Z,16.78
2018-09-22T10:52:10.527Z,16.66
2018-09-22T10:54:39.327Z,16.42
2018-09-22T10:57:08.144Z,16.65
2018-09-22T10:59:36.932Z,16.79
2018-09-22T11:02:05.963Z,16.88
2018-09-22T11:04:34.799Z,17.06
2018-09-22T11:07:03.832Z,17.00
2018-09-22T11:09:32.644Z,16.97
2018-09-22T11:12:01.695Z,17.10
2018-09-22T11:14:30.478Z,17.12
2018-09-22T11:16:59.340Z,16.91
2018-09-22T11:19:28.671Z,17.18
2018-09-22T11:21:57.486Z,17.38
2018-09-22T11:24:26.313Z,17.06
2018-09-22T11:26:55.138Z,16.88
2018-09-22T11:29:24.000Z,16.98
2018-09-22T11:31:53.223Z,17.11
2018-09-22T11:34:21.975Z,17.18
2018-09-22T11:36:50.820Z,17.03
2018-09-22T11:39:19.624Z,16.99
2018-09-22T11:41:48.531Z,16.99
2018-09-22T11:44:17.299Z,16.97
2018-09-22T11:46:46.559Z,16.93
2018-09-22T11:49:15.358Z,16.93
2018-09-22T11:51:44.190Z,16.99
2018-09-22T11:54:13.066Z,17.00
2018-09-22T11:56:41.945Z,16.86
2018-09-22T11:59:10.735Z,17.01
2018-09-22T12:01:39.504Z,17.00
2018-09-22T12:04:08.340Z,17.07
2018-09-22T12:06:37.305Z,17.04
2018-09-22T12:09:09.397Z,17.03
2018-09-22T12:11:38.292Z,16.94
2018-09-22T12:14:07.313Z,16.95
2018-09-22T12:16:36.062Z,16.99
2018-09-22T12:19:05.132Z,16.96
2018-09-22T12:21:34.186Z,16.85
2018-09-22T12:24:03.011Z,16.88
2018-09-22T12:26:38.463Z,17.02
2018-09-22T12:29:07.352Z,17.29
2018-09-22T12:31:36.183Z,17.36
2018-09-22T12:34:05.025Z,17.05
2018-09-22T12:36:33.824Z,17.13
2018-09-22T12:39:02.950Z,17.18
2018-09-22T12:41:31.840Z,17.10
2018-09-22T12:44:00.690Z,17.01
2018-09-22T12:46:29.488Z,17.04
2018-09-22T12:48:58.328Z,17.05
2018-09-22T12:51:27.109Z,17.17
2018-09-22T12:53:55.956Z,17.27
2018-09-22T12:56:24.904Z,17.16
2018-09-22T12:58:53.787Z,17.14
2018-09-22T13:01:22.600Z,17.21
2018-09-22T13:03:51.425Z,16.97
2018-09-22T13:06:20.273Z,16.91
2018-09-22T13:08:49.324Z,16.89
2018-09-22T13:11:18.528Z,16.90
2018-09-22T13:13:47.316Z,16.97
2018-09-22T13:16:16.251Z,16.87
2018-09-22T13:18:45.107Z,16.72
2018-09-22T13:21:13.971Z,16.72
2018-09-22T13:23:42.812Z,16.52
2018-09-22T13:26:11.740Z,16.49
2018-09-22T13:28:40.544Z,16.38
2018-09-22T13:31:09.435Z,16.41
2018-09-22T13:33:38.232Z,16.17
2018-09-22T13:36:07.100Z,15.72
2018-09-22T13:38:35.949Z,15.57
2018-09-22T13:41:04.788Z,15.22
2018-09-22T13:43:33.624Z,15.23
2018-09-22T13:46:02.510Z,15.30
2018-09-22T13:48:31.412Z,15.15
2018-09-22T13:51:00.655Z,15.20
2018-09-22T13:53:29.429Z,15.42
2018-09-22T13:55:58.337Z,15.07
2018-09-22T13:58:27.465Z,14.92
2018-09-22T14:00:56.311Z,15.02
2018-09-22T14:03:25.119Z,15.15
2018-09-22T14:05:53.916Z,15.27
2018-09-22T14:08:22.792Z,15.49
2018-09-22T14:10:51.844Z,15.41
2018-09-22T14:13:20.675Z,15.40
2018-09-22T14:15:49.542Z,15.37
2018-09-22T14:18:18.360Z,15.46
2018-09-22T14:20:47.356Z,15.04
2018-09-22T14:23:16.197Z,15.46
2018-09-22T14:25:44.950Z,15.54
2018-09-22T14:28:13.766Z,15.51
2018-09-22T14:30:42.579Z,15.57
2018-09-22T14:33:11.440Z,15.47
2018-09-22T14:35:40.188Z,15.72
2018-09-22T14:38:09.019Z,15.72
2018-09-22T14:40:38.321Z,15.89
2018-09-22T14:43:07.496Z,15.96
2018-09-22T14:45:36.329Z,15.99
2018-09-22T14:48:05.427Z,16.02
2018-09-22T14:50:34.199Z,16.14
2018-09-22T14:53:03.007Z,16.19
2018-09-22T14:55:31.754Z,16.17
2018-09-22T14:58:00.957Z,16.12
2018-09-22T15:00:29.792Z,16.01
2018-09-22T15:02:58.535Z,16.06
2018-09-22T15:05:27.364Z,15.92
2018-09-22T15:07:56.363Z,15.82
2018-09-22T15:10:25.371Z,15.89
2018-09-22T15:12:54.260Z,15.68
2018-09-22T15:15:23.151Z,15.69
2018-09-22T15:17:51.960Z,15.69
2018-09-22T15:20:21.043Z,15.66
2018-09-22T15:22:49.871Z,15.62
2018-09-22T15:25:18.660Z,15.59
2018-09-22T15:27:47.499Z,15.60
2018-09-22T15:30:16.319Z,15.45
2018-09-22T15:32:45.081Z,15.51
2018-09-22T15:35:13.947Z,15.47
2018-09-22T15:37:42.748Z,15.27
2018-09-22T15:40:11.739Z,15.24
2018-09-22T15:42:40.545Z,15.07
2018-09-22T15:45:15.435Z,15.05
2018-09-22T15:47:44.285Z,14.85
2018-09-22T15:50:13.175Z,14.88
2018-09-22T15:52:41.960Z,14.84
2018-09-22T15:55:10.762Z,14.90
2018-09-22T15:57:39.780Z,14.68
2018-09-22T16:00:09.540Z,14.57
2018-09-22T16:02:38.372Z,14.50
2018-09-22T16:05:07.175Z,14.57
2018-09-22T16:07:35.971Z,14.54
2018-09-22T16:10:05.273Z,14.48
2018-09-22T16:12:34.148Z,14.49
2018-09-22T16:15:02.980Z,14.37
2018-09-22T16:17:31.799Z,14.37
2018-09-22T16:20:00.601Z,14.31
2018-09-22T16:22:29.431Z,14.26
2018-09-22T16:24:58.316Z,14.24
2018-09-22T16:27:27.192Z,14.09
2018-09-22T16:29:55.937Z,14.17
2018-09-22T16:32:25.136Z,14.14
2018-09-22T16:34:53.960Z,14.16
2018-09-22T16:37:22.900Z,14.16
2018-09-22T16:39:51.752Z,14.23
2018-09-22T16:42:20.631Z,14.10
2018-09-22T16:44:49.418Z,13.97
2018-09-22T16:47:18.268Z,14.04
2018-09-22T16:49:47.155Z,14.00
2018-09-22T16:52:15.995Z,14.02
2018-09-22T16:54:44.759Z,13.93
2018-09-22T16:57:13.583Z,13.96
2018-09-22T16:59:42.479Z,13.78
2018-09-22T17:02:11.292Z,13.56
2018-09-22T17:04:40.175Z,13.29
2018-09-22T17:07:09.085Z,13.32
2018-09-22T17:09:37.969Z,13.02
2018-09-22T17:12:06.772Z,12.94
2018-09-22T17:14:35.639Z,12.94
2018-09-22T17:17:04.451Z,12.83
2018-09-22T17:19:33.263Z,12.80
2018-09-22T17:22:02.020Z,12.84
2018-09-22T17:24:30.867Z,12.76
2018-09-22T17:26:59.875Z,12.69
2018-09-22T17:29:28.763Z,12.59
2018-09-22T17:31:57.551Z,12.59
2018-09-22T17:34:26.411Z,12.68
2018-09-22T17:36:55.203Z,12.48
2018-09-22T17:39:24.081Z,12.62
2018-09-22T17:41:52.923Z,12.45
2018-09-22T17:44:21.711Z,12.48
2018-09-22T17:46:50.479Z,12.44
2018-09-22T17:49:19.316Z,12.46
2018-09-22T17:51:48.204Z,12.54
2018-09-22T17:54:17.012Z,12.33
2018-09-22T17:56:45.822Z,12.36
2018-09-22T17:59:14.644Z,12.39
2018-09-22T18:01:43.493Z,12.40
2018-09-22T18:04:12.744Z,12.39
2018-09-22T18:06:41.576Z,12.41
2018-09-22T18:09:10.329Z,12.53
2018-09-22T18:11:40.414Z,12.33
2018-09-22T18:14:09.192Z,12.35
2018-09-22T18:16:38.176Z,12.41
2018-09-22T18:19:06.962Z,12.34
2018-09-22T18:21:35.853Z,12.47
2018-09-22T18:24:04.771Z,12.33
2018-09-22T18:26:33.785Z,12.33
2018-09-22T18:29:02.651Z,12.31
2018-09-22T18:31:31.516Z,12.39
2018-09-22T18:34:00.389Z,12.52
2018-09-22T18:36:29.423Z,12.34
2018-09-22T18:38:58.199Z,12.39
2018-09-22T18:41:27.156Z,12.30
2018-09-22T18:43:56.229Z,12.28
2018-09-22T18:46:25.025Z,12.00
2018-09-22T18:48:53.794Z,12.28
2018-09-22T18:51:22.600Z,12.03
2018-09-22T18:53:51.447Z,12.09
2018-09-22T18:56:20.263Z,12.17
2018-09-22T18:58:49.084Z,12.10
2018-09-22T19:01:17.891Z,12.00
2018-09-22T19:03:46.663Z,12.10
2018-09-22T19:06:15.488Z,12.17
2018-09-22T19:08:44.279Z,12.09
2018-09-22T19:11:13.115Z,11.92
2018-09-22T19:13:50.026Z,11.93
2018-09-22T19:17:23.149Z,12.02
2018-09-22T19:19:56.766Z,12.06
2018-09-22T19:22:33.057Z,11.96
2018-09-22T19:25:07.126Z,12.01
2018-09-22T19:27:40.908Z,11.91
2018-09-22T19:30:15.307Z,12.02
2018-09-22T19:32:52.264Z,12.00
2018-09-22T19:35:25.735Z,11.93
2018-09-22T19:37:58.456Z,11.96
2018-09-22T19:40:34.876Z,11.81
2018-09-22T19:43:11.600Z,11.80
2018-09-22T19:45:48.563Z,11.79
2018-09-22T19:48:23.112Z,11.72
2018-09-22T19:50:55.470Z,11.70
2018-09-22T19:53:24.424Z,11.54
2018-09-22T19:55:53.187Z,11.50
2018-09-22T19:58:22.072Z,11.53
2018-09-22T20:00:50.872Z,11.55
2018-09-22T20:03:19.786Z,11.52
2018-09-22T20:05:48.597Z,11.57
2018-09-22T20:08:17.354Z,11.35
2018-09-22T20:10:46.285Z,11.47
2018-09-22T20:13:15.089Z,11.48
2018-09-22T20:15:43.927Z,11.31
2018-09-22T20:18:12.713Z,11.25
2018-09-22T20:20:41.540Z,11.41
2018-09-22T20:23:10.773Z,11.33
2018-09-22T20:25:39.582Z,11.38
2018-09-22T20:28:08.364Z,11.45
2018-09-22T20:30:37.199Z,11.55
2018-09-22T20:33:06.101Z,11.47
2018-09-22T20:35:35.011Z,11.41
2018-09-22T20:38:03.829Z,11.47
2018-09-22T20:40:32.706Z,11.40
2018-09-22T20:43:01.520Z,11.49
2018-09-22T20:45:30.360Z,11.39
2018-09-22T20:47:59.184Z,11.34
2018-09-22T20:50:28.028Z,11.44
2018-09-22T20:52:56.831Z,11.35
2018-09-22T20:55:25.655Z,11.32
2018-09-22T20:57:54.407Z,11.27
2018-09-22T21:00:23.264Z,11.26
2018-09-22T21:02:52.364Z,11.38
2018-09-22T21:05:21.219Z,11.26
2018-09-22T21:07:50.230Z,11.32
2018-09-22T21:10:19.032Z,11.24
2018-09-22T21:12:48.007Z,11.30
2018-09-22T21:15:16.833Z,11.26
2018-09-22T21:17:45.670Z,11.17
2018-09-22T21:20:14.452Z,11.29
2018-09-22T21:22:43.251Z,11.24
2018-09-22T21:25:12.071Z,11.11
2018-09-22T21:27:40.890Z,11.23
2018-09-22T21:30:09.687Z,11.26
2018-09-22T21:32:38.525Z,11.19
2018-09-22T21:35:07.324Z,11.17
2018-09-22T21:37:36.491Z,11.18
2018-09-22T21:40:05.829Z,11.17
2018-09-22T21:42:34.619Z,11.19
2018-09-22T21:45:03.772Z,11.06
2018-09-22T21:47:32.665Z,11.00
2018-09-22T21:50:01.498Z,11.02
2018-09-22T21:52:30.324Z,11.12
2018-09-22T21:54:59.130Z,11.06
2018-09-22T21:57:28.240Z,11.04
2018-09-22T21:59:57.028Z,11.02
2018-09-22T22:02:25.898Z,11.00
2018-09-22T22:04:54.747Z,10.94
2018-09-22T22:07:23.598Z,10.94
2018-09-22T22:09:52.370Z,11.03
2018-09-22T22:12:21.163Z,10.97
2018-09-22T22:14:50.071Z,10.89
2018-09-22T22:17:18.852Z,10.85
2018-09-22T22:19:47.682Z,10.79
2018-09-22T22:22:16.464Z,10.86
2018-09-22T22:24:45.328Z,10.80
2018-09-22T22:27:14.227Z,10.72
2018-09-22T22:29:43.037Z,10.75
2018-09-22T22:32:11.827Z,10.76
2018-09-22T22:34:40.651Z,10.74
2018-09-22T22:37:09.420Z,10.57
2018-09-22T22:39:38.340Z,10.61
2018-09-22T22:42:07.256Z,10.61
2018-09-22T22:44:36.054Z,10.60
2018-09-22T22:47:04.836Z,10.62
2018-09-22T22:49:33.709Z,10.67
2018-09-22T22:52:02.680Z,10.67
2018-09-22T22:54:31.528Z,10.48
2018-09-22T22:57:00.359Z,10.56
2018-09-22T22:59:29.193Z,10.55
2018-09-22T23:01:57.964Z,10.61
2018-09-22T23:04:27.147Z,10.48
2018-09-22T23:06:55.960Z,10.48
2018-09-22T23:09:24.752Z,10.53
2018-09-22T23:11:53.600Z,10.48
2018-09-22T23:14:22.484Z,10.63
2018-09-22T23:16:51.368Z,10.62
2018-09-22T23:19:20.219Z,10.63
2018-09-22T23:21:49.160Z,10.61
2018-09-22T23:24:17.907Z,10.72
2018-09-22T23:26:46.785Z,10.64
2018-09-22T23:29:15.648Z,10.76
2018-09-22T23:31:44.485Z,10.77
2018-09-22T23:34:13.278Z,10.68
2018-09-22T23:36:42.139Z,10.69
2018-09-22T23:39:11.650Z,10.76
2018-09-22T23:41:41.255Z,10.72
2018-09-22T23:44:10.112Z,10.60
2018-09-22T23:46:39.339Z,10.72
2018-09-22T23:49:08.515Z,10.73
2018-09-22T23:51:37.387Z,10.74
2018-09-22T23:54:06.387Z,10.67
2018-09-22T23:56:35.235Z,10.70
2018-09-22T23:59:04.052Z,10.74
